Terminal Aerodrome Forecast
Issued by NWS

Home | Current Version | Previous Version | Text Only | Print | Product List | Glossary Off
Versions: 1 2 3 4 5 6 7 8 9 10 11 12 13 14

000
FTUS43 KICT 270751 AAA
TAFRSL
TAF AMD
KRSL 270751Z 2708/2806 11009KT P6SM VCTS SCT060CB BKN250
      TEMPO 2708/2710 VRB25G40KT 5SM TSRA BR BKN060CB
     FM271000 13010KT P6SM VCTS BKN060CB
     FM271200 09005KT P6SM BKN080
     FM271800 36019G28KT P6SM VCSH BKN020=

USA.gov is the U.S. government's official web portal to all federal, state and local government web resources and services.